Time;durP1;ratioP1;P1;durP2;ratioP2;P2;SDS_P1;SDS_P2;PMS_P1;PMS_P2;Temp;Humidity;BMP_temperature;BMP_pressure;BME280_temperature;BME280_humidity;BME280_pressure;Samples;Min_cycle;Max_cycle;Signal;HPM_P1;HPM_P2
2023/08/18 00:00:25;;;;;;;86.43;8.67;;;;;;;;;;4931217;28;20019;-54
2023/08/18 00:02:50;;;;;;;129.05;11.52;;;;;;;;;;4928747;28;20342;-54
2023/08/18 00:05:16;;;;;;;96.87;9.40;;;;;;;;;;4929819;28;20466;-55
2023/08/18 00:07:41;;;;;;;102.03;9.53;;;;;;;;;;4926209;28;20274;-55
2023/08/18 00:10:08;;;;;;;93.70;9.38;;;;;;;;;;4930086;28;20284;-54
2023/08/18 00:12:33;;;;;;;87.80;9.10;;;;;;;;;;4930635;28;20039;-56
2023/08/18 00:14:58;;;;;;;169.10;13.90;;;;;;;;;;4929465;28;20699;-55
2023/08/18 00:17:24;;;;;;;93.00;9.23;;;;;;;;;;4928964;28;20594;-54
2023/08/18 00:19:49;;;;;;;128.35;11.68;;;;;;;;;;4929554;28;20308;-54
2023/08/18 00:22:14;;;;;;;95.73;9.47;;;;;;;;;;4931288;28;20070;-55
2023/08/18 00:24:39;;;;;;;89.70;8.87;;;;;;;;;;4928953;28;20264;-55
2023/08/18 00:27:05;;;;;;;111.03;9.93;;;;;;;;;;4929191;28;20043;-55
2023/08/18 00:29:30;;;;;;;97.03;9.77;;;;;;;;;;4936231;28;20290;-55
2023/08/18 00:31:55;;;;;;;133.93;11.63;;;;;;;;;;4926363;28;20035;-55
2023/08/18 00:34:20;;;;;;;84.13;8.87;;;;;;;;;;4930205;28;20019;-54
2023/08/18 00:36:46;;;;;;;133.03;11.93;;;;;;;;;;4928197;28;20378;-54
2023/08/18 00:39:11;;;;;;;99.75;9.65;;;;;;;;;;4929243;28;20065;-54
2023/08/18 00:41:37;;;;;;;96.50;9.53;;;;;;;;;;4928004;28;20039;-54
2023/08/18 00:44:02;;;;;;;104.55;10.10;;;;;;;;;;4927407;28;20346;-56
2023/08/18 00:46:28;;;;;;;106.10;9.75;;;;;;;;;;4926671;28;20043;-53
2023/08/18 00:48:53;;;;;;;126.93;11.88;;;;;;;;;;4925454;28;20396;-55
2023/08/18 00:51:19;;;;;;;97.35;9.65;;;;;;;;;;4925770;28;20032;-55
2023/08/18 00:53:45;;;;;;;97.10;9.98;;;;;;;;;;4927362;28;20034;-56
2023/08/18 00:56:11;;;;;;;92.43;9.57;;;;;;;;;;4927215;28;20036;-55
2023/08/18 00:58:36;;;;;;;117.93;10.25;;;;;;;;;;4929197;28;20481;-55
2023/08/18 01:01:02;;;;;;;143.98;12.52;;;;;;;;;;4925510;28;20028;-56
2023/08/18 01:03:27;;;;;;;88.75;9.18;;;;;;;;;;4925573;28;20034;-54
2023/08/18 01:05:52;;;;;;;135.13;12.25;;;;;;;;;;4926712;28;20676;-55
2023/08/18 01:08:18;;;;;;;69.43;7.93;;;;;;;;;;4927126;28;20047;-53
2023/08/18 01:10:47;;;;;;;85.00;9.03;;;;;;;;;;4928990;28;20283;-54
2023/08/18 01:13:36;;;;;;;97.32;9.85;;;;;;;;;;4928896;28;20025;-55
2023/08/18 01:16:02;;;;;;;139.20;12.68;;;;;;;;;;4925875;28;20107;-56
2023/08/18 01:18:28;;;;;;;133.02;11.55;;;;;;;;;;4928647;28;20574;-54
2023/08/18 01:20:53;;;;;;;132.20;11.50;;;;;;;;;;4926449;28;20110;-57
2023/08/18 01:23:18;;;;;;;74.82;8.38;;;;;;;;;;4928455;28;20073;-54
2023/08/18 01:25:44;;;;;;;110.97;10.33;;;;;;;;;;4927600;28;20381;-54
2023/08/18 01:28:09;;;;;;;84.20;9.53;;;;;;;;;;4927847;28;20342;-54
2023/08/18 01:30:37;;;;;;;87.53;9.33;;;;;;;;;;4928165;28;20278;-55
2023/08/18 01:33:15;;;;;;;169.80;14.45;;;;;;;;;;4927278;28;20030;-54
2023/08/18 01:35:42;;;;;;;71.53;8.98;;;;;;;;;;4926284;28;20039;-54
2023/08/18 01:38:08;;;;;;;94.07;9.90;;;;;;;;;;4927133;28;20059;-55
2023/08/18 01:40:35;;;;;;;94.88;10.20;;;;;;;;;;4925419;28;20061;-55
2023/08/18 01:43:00;;;;;;;119.35;11.23;;;;;;;;;;4932329;28;20028;-54
2023/08/18 01:45:26;;;;;;;106.47;10.98;;;;;;;;;;4926143;28;20099;-54
2023/08/18 01:47:51;;;;;;;135.23;13.73;;;;;;;;;;4927440;28;20605;-54
2023/08/18 01:50:16;;;;;;;87.73;10.23;;;;;;;;;;4927283;28;20279;-55
2023/08/18 01:52:41;;;;;;;108.60;10.57;;;;;;;;;;4926400;28;20019;-53
2023/08/18 01:55:07;;;;;;;81.00;9.30;;;;;;;;;;4924485;28;20271;-54
2023/08/18 01:57:32;;;;;;;87.03;10.57;;;;;;;;;;4927108;28;20741;-54
2023/08/18 01:59:57;;;;;;;196.37;62.97;;;;;;;;;;4925063;28;20047;-53
2023/08/18 02:02:22;;;;;;;96.23;9.53;;;;;;;;;;4926206;28;21307;-55
2023/08/18 02:04:47;;;;;;;88.70;9.23;;;;;;;;;;4924564;28;20424;-54
2023/08/18 02:07:13;;;;;;;95.47;10.13;;;;;;;;;;4928041;28;20189;-56
2023/08/18 02:09:38;;;;;;;72.63;8.77;;;;;;;;;;4925323;28;20058;-57
2023/08/18 02:12:03;;;;;;;129.25;12.23;;;;;;;;;;4923858;28;20276;-53
2023/08/18 02:14:29;;;;;;;114.20;11.07;;;;;;;;;;4926482;28;20024;-56
2023/08/18 02:16:55;;;;;;;151.40;14.00;;;;;;;;;;4925719;28;20039;-54
2023/08/18 02:19:20;;;;;;;156.48;41.70;;;;;;;;;;4927768;28;20078;-55
2023/08/18 02:21:46;;;;;;;130.80;12.20;;;;;;;;;;4926362;28;20119;-54
2023/08/18 02:24:11;;;;;;;90.72;10.02;;;;;;;;;;4924485;28;20389;-55
2023/08/18 02:26:37;;;;;;;88.67;9.87;;;;;;;;;;4926738;28;20564;-56
2023/08/18 02:29:02;;;;;;;167.53;13.87;;;;;;;;;;4924799;28;20804;-55
2023/08/18 02:31:28;;;;;;;99.35;10.07;;;;;;;;;;4924827;28;20310;-54
2023/08/18 02:33:53;;;;;;;133.00;12.53;;;;;;;;;;4924303;28;20032;-55
2023/08/18 02:36:18;;;;;;;104.90;10.27;;;;;;;;;;4925652;28;20273;-54
2023/08/18 02:38:44;;;;;;;106.82;12.18;;;;;;;;;;4927315;28;20321;-54
2023/08/18 02:41:09;;;;;;;85.70;9.23;;;;;;;;;;4924477;28;20047;-56
2023/08/18 02:43:34;;;;;;;153.52;48.50;;;;;;;;;;4925552;28;20024;-54
2023/08/18 02:46:00;;;;;;;139.77;12.83;;;;;;;;;;4924212;28;20113;-54
2023/08/18 02:48:26;;;;;;;222.77;98.40;;;;;;;;;;4926270;28;20270;-55
2023/08/18 02:51:00;;;;;;;101.85;10.70;;;;;;;;;;4924433;28;20064;-55
2023/08/18 02:53:26;;;;;;;80.40;9.07;;;;;;;;;;4926364;28;20790;-55
2023/08/18 02:55:53;;;;;;;74.67;8.53;;;;;;;;;;4927763;28;20593;-55
2023/08/18 02:58:18;;;;;;;122.63;29.50;;;;;;;;;;4926834;28;20047;-55
2023/08/18 03:00:43;;;;;;;88.80;9.60;;;;;;;;;;4925516;28;20146;-56
2023/08/18 03:03:09;;;;;;;92.90;9.20;;;;;;;;;;4923481;28;20338;-56
2023/08/18 03:05:35;;;;;;;116.63;10.23;;;;;;;;;;4923375;28;20362;-55
2023/08/18 03:08:00;;;;;;;201.27;36.47;;;;;;;;;;4924546;28;20345;-55
2023/08/18 03:10:25;;;;;;;102.60;19.87;;;;;;;;;;4926274;28;20019;-56
2023/08/18 03:12:50;;;;;;;105.70;9.60;;;;;;;;;;4926517;28;20027;-54
2023/08/18 03:15:16;;;;;;;86.37;8.80;;;;;;;;;;4927086;28;20717;-54
2023/08/18 03:17:41;;;;;;;71.70;8.03;;;;;;;;;;4924821;28;20302;-54
2023/08/18 03:20:07;;;;;;;159.50;12.97;;;;;;;;;;4923664;28;20278;-55
2023/08/18 03:22:34;;;;;;;75.20;7.80;;;;;;;;;;4924742;28;20287;-55
2023/08/18 03:25:00;;;;;;;123.18;10.95;;;;;;;;;;4923942;28;20038;-55
2023/08/18 03:27:25;;;;;;;100.88;9.35;;;;;;;;;;4923090;28;20035;-56
2023/08/18 03:29:51;;;;;;;73.63;8.13;;;;;;;;;;4925051;28;20035;-56
2023/08/18 03:32:16;;;;;;;84.32;8.25;;;;;;;;;;4924760;28;20450;-55
2023/08/18 03:34:41;;;;;;;111.80;9.45;;;;;;;;;;4924479;28;20106;-55
2023/08/18 03:37:06;;;;;;;113.77;9.87;;;;;;;;;;4924207;28;20038;-55
2023/08/18 03:39:31;;;;;;;85.43;8.23;;;;;;;;;;4925229;28;20282;-57
2023/08/18 03:41:57;;;;;;;151.73;12.20;;;;;;;;;;4922932;28;20286;-55
2023/08/18 03:44:22;;;;;;;87.83;8.43;;;;;;;;;;4924377;28;20254;-55
2023/08/18 03:46:47;;;;;;;79.00;7.80;;;;;;;;;;4922616;28;20661;-54
2023/08/18 03:49:12;;;;;;;99.60;8.80;;;;;;;;;;4923658;28;20674;-57
2023/08/18 03:51:38;;;;;;;102.68;9.10;;;;;;;;;;4922338;28;20294;-56
2023/08/18 03:54:04;;;;;;;129.95;11.05;;;;;;;;;;4923521;28;20036;-57
2023/08/18 03:56:29;;;;;;;113.88;9.40;;;;;;;;;;4922655;28;20130;-54
2023/08/18 03:58:54;;;;;;;85.70;8.20;;;;;;;;;;4923559;28;20512;-57
2023/08/18 04:01:19;;;;;;;74.40;8.10;;;;;;;;;;4925008;28;20851;-56
2023/08/18 04:03:45;;;;;;;99.37;9.10;;;;;;;;;;4923321;28;20290;-55
2023/08/18 04:06:12;;;;;;;139.98;12.32;;;;;;;;;;4922803;28;20260;-55
2023/08/18 04:08:42;;;;;;;106.15;9.52;;;;;;;;;;4921938;28;20016;-55
2023/08/18 04:11:07;;;;;;;138.27;11.93;;;;;;;;;;4923708;28;20826;-56
2023/08/18 04:13:32;;;;;;;72.07;8.10;;;;;;;;;;4926455;28;20034;-55
2023/08/18 04:15:58;;;;;;;144.45;12.32;;;;;;;;;;4921770;28;20323;-58
2023/08/18 04:18:23;;;;;;;77.37;8.00;;;;;;;;;;4924035;28;20039;-55
2023/08/18 04:20:48;;;;;;;87.25;8.60;;;;;;;;;;4925916;28;20731;-56
2023/08/18 04:23:14;;;;;;;93.32;8.73;;;;;;;;;;4924187;28;20549;-55
2023/08/18 04:25:41;;;;;;;81.50;8.05;;;;;;;;;;4922252;28;20094;-55
2023/08/18 04:28:07;;;;;;;138.98;11.93;;;;;;;;;;4925034;28;20166;-55
2023/08/18 04:30:32;;;;;;;104.65;9.05;;;;;;;;;;4924444;28;20513;-56
2023/08/18 04:32:58;;;;;;;106.10;9.82;;;;;;;;;;4923403;28;20038;-55
2023/08/18 04:35:23;;;;;;;107.80;9.33;;;;;;;;;;4924848;28;20134;-55
2023/08/18 04:37:48;;;;;;;130.18;10.25;;;;;;;;;;4926991;28;20333;-56
2023/08/18 04:40:14;;;;;;;124.72;10.60;;;;;;;;;;4925866;28;20628;-55
2023/08/18 04:42:39;;;;;;;82.73;8.70;;;;;;;;;;4928305;28;20019;-56
2023/08/18 04:45:04;;;;;;;185.07;14.73;;;;;;;;;;4927004;28;20278;-55
2023/08/18 04:47:30;;;;;;;84.30;8.25;;;;;;;;;;4927455;28;20245;-55
2023/08/18 04:49:55;;;;;;;82.50;8.53;;;;;;;;;;4928699;28;20038;-57
2023/08/18 04:52:20;;;;;;;100.10;8.83;;;;;;;;;;4925716;28;20342;-57
2023/08/18 04:54:46;;;;;;;89.15;8.70;;;;;;;;;;4928114;28;20847;-55
2023/08/18 04:57:11;;;;;;;142.68;11.95;;;;;;;;;;4926879;28;20027;-57
2023/08/18 04:59:36;;;;;;;124.57;10.70;;;;;;;;;;4927612;28;20584;-57
2023/08/18 05:02:01;;;;;;;147.77;12.30;;;;;;;;;;4926453;28;20031;-56
2023/08/18 05:04:26;;;;;;;77.50;8.03;;;;;;;;;;4928861;28;20551;-57
2023/08/18 05:06:52;;;;;;;120.20;10.03;;;;;;;;;;4925933;28;20039;-55
2023/08/18 05:09:18;;;;;;;99.10;9.07;;;;;;;;;;4927260;28;20333;-56
2023/08/18 05:11:43;;;;;;;89.97;8.60;;;;;;;;;;4928550;28;20850;-57
2023/08/18 05:14:08;;;;;;;160.60;12.87;;;;;;;;;;4928155;28;20020;-56
2023/08/18 05:16:33;;;;;;;88.15;8.38;;;;;;;;;;4926317;28;20613;-56
2023/08/18 05:18:59;;;;;;;102.80;9.17;;;;;;;;;;4926578;28;20038;-56
2023/08/18 05:21:24;;;;;;;117.30;10.73;;;;;;;;;;4927239;28;20773;-57
2023/08/18 05:23:50;;;;;;;73.55;8.55;;;;;;;;;;4927369;28;20038;-57
2023/08/18 05:26:15;;;;;;;117.40;11.10;;;;;;;;;;4927013;28;20036;-56
2023/08/18 05:28:40;;;;;;;122.32;10.65;;;;;;;;;;4926732;28;20036;-56
2023/08/18 05:31:06;;;;;;;119.18;10.30;;;;;;;;;;4927639;28;20048;-56
2023/08/18 05:33:31;;;;;;;82.80;21.70;;;;;;;;;;4927001;28;20038;-55
2023/08/18 05:35:58;;;;;;;98.50;9.17;;;;;;;;;;4926994;28;20065;-55
2023/08/18 05:38:23;;;;;;;86.43;8.55;;;;;;;;;;4925723;28;20495;-55
2023/08/18 05:40:49;;;;;;;166.03;89.97;;;;;;;;;;4926447;28;20043;-55
2023/08/18 05:43:15;;;;;;;156.90;31.15;;;;;;;;;;4926135;28;20310;-57
2023/08/18 05:45:42;;;;;;;76.10;7.93;;;;;;;;;;4926753;28;20434;-56
2023/08/18 05:48:07;;;;;;;120.60;10.38;;;;;;;;;;4925365;28;20631;-56
2023/08/18 05:50:32;;;;;;;216.60;159.57;;;;;;;;;;4925502;28;20575;-57
2023/08/18 05:52:58;;;;;;;116.40;25.45;;;;;;;;;;4925573;28;20023;-54
2023/08/18 05:55:23;;;;;;;433.17;362.50;;;;;;;;;;4924099;28;20043;-55
2023/08/18 05:57:49;;;;;;;158.65;115.80;;;;;;;;;;4924424;28;20065;-56
2023/08/18 06:00:14;;;;;;;294.58;179.93;;;;;;;;;;4923326;28;20948;-57
2023/08/18 06:02:40;;;;;;;119.35;56.70;;;;;;;;;;4928413;28;20035;-55
2023/08/18 06:05:05;;;;;;;375.02;302.58;;;;;;;;;;4925429;28;20028;-56
2023/08/18 06:07:31;;;;;;;403.05;362.73;;;;;;;;;;4926210;28;20316;-56
2023/08/18 06:09:56;;;;;;;376.13;334.07;;;;;;;;;;4924096;28;20270;-55
2023/08/18 06:12:22;;;;;;;409.10;368.45;;;;;;;;;;4924446;28;20331;-58
2023/08/18 06:14:48;;;;;;;392.23;353.37;;;;;;;;;;4928538;28;20118;-55
2023/08/18 06:17:13;;;;;;;380.25;318.70;;;;;;;;;;4925664;28;20290;-55
2023/08/18 06:19:38;;;;;;;255.67;227.57;;;;;;;;;;4926037;28;20110;-56
2023/08/18 06:22:03;;;;;;;387.90;322.80;;;;;;;;;;4925781;28;20032;-56
2023/08/18 06:24:28;;;;;;;294.70;244.57;;;;;;;;;;4929095;28;20875;-57
2023/08/18 06:26:54;;;;;;;373.77;337.93;;;;;;;;;;4927999;28;20286;-57
2023/08/18 06:29:19;;;;;;;364.53;325.17;;;;;;;;;;4932025;28;20027;-56
2023/08/18 06:31:45;;;;;;;336.88;295.63;;;;;;;;;;4928491;28;20362;-55
2023/08/18 06:34:10;;;;;;;363.00;319.55;;;;;;;;;;4925789;28;20024;-56
2023/08/18 06:36:35;;;;;;;381.00;341.93;;;;;;;;;;4926314;28;20039;-59
2023/08/18 06:39:01;;;;;;;417.17;373.20;;;;;;;;;;4927222;28;20473;-57
2023/08/18 06:41:26;;;;;;;415.50;372.67;;;;;;;;;;4923284;28;20036;-59
2023/08/18 06:43:51;;;;;;;302.13;270.43;;;;;;;;;;4925145;28;20051;-56
2023/08/18 06:46:16;;;;;;;424.33;379.40;;;;;;;;;;4924058;28;20084;-56
2023/08/18 06:48:42;;;;;;;362.73;326.57;;;;;;;;;;4924188;28;20023;-57
2023/08/18 06:51:07;;;;;;;400.10;357.50;;;;;;;;;;4922303;28;20860;-57
2023/08/18 06:53:32;;;;;;;385.30;343.60;;;;;;;;;;4925124;28;20031;-55
2023/08/18 06:55:57;;;;;;;350.43;314.53;;;;;;;;;;4925510;28;20866;-56
2023/08/18 06:58:23;;;;;;;383.70;345.10;;;;;;;;;;4926660;28;20060;-56
2023/08/18 07:00:48;;;;;;;342.53;307.67;;;;;;;;;;4926438;28;20050;-56
2023/08/18 07:03:13;;;;;;;412.73;367.67;;;;;;;;;;4923114;28;20301;-56
2023/08/18 07:05:38;;;;;;;369.30;334.70;;;;;;;;;;4928840;28;20035;-55
2023/08/18 07:08:04;;;;;;;364.50;327.47;;;;;;;;;;4929564;28;20043;-56
2023/08/18 07:10:29;;;;;;;387.70;349.52;;;;;;;;;;4927906;28;20171;-57
2023/08/18 07:12:54;;;;;;;394.63;358.63;;;;;;;;;;4929322;28;20019;-55
2023/08/18 07:15:19;;;;;;;431.17;389.07;;;;;;;;;;4927264;28;20531;-55
2023/08/18 07:17:45;;;;;;;450.43;409.40;;;;;;;;;;4928929;28;20023;-56
2023/08/18 07:20:12;;;;;;;470.97;421.43;;;;;;;;;;4934441;28;20031;-57
2023/08/18 07:22:37;;;;;;;419.00;380.05;;;;;;;;;;4927520;28;20545;-58
2023/08/18 07:25:04;;;;;;;480.63;434.80;;;;;;;;;;4928756;28;20560;-57
2023/08/18 07:27:29;;;;;;;420.10;379.42;;;;;;;;;;4928300;28;20063;-57
2023/08/18 07:29:54;;;;;;;448.33;407.77;;;;;;;;;;4927336;28;20163;-57
2023/08/18 07:32:20;;;;;;;435.57;390.27;;;;;;;;;;4929608;28;20134;-57
2023/08/18 07:34:45;;;;;;;444.43;403.57;;;;;;;;;;4935671;28;20093;-58
2023/08/18 07:37:11;;;;;;;464.15;416.83;;;;;;;;;;4930847;28;20088;-57
2023/08/18 07:39:36;;;;;;;435.85;392.55;;;;;;;;;;4928140;28;20409;-57
2023/08/18 07:42:02;;;;;;;453.83;412.23;;;;;;;;;;4931358;28;20442;-59
2023/08/18 07:44:27;;;;;;;517.25;471.48;;;;;;;;;;4928040;28;20163;-58
2023/08/18 07:46:52;;;;;;;468.83;424.90;;;;;;;;;;4929556;28;20122;-57
2023/08/18 07:49:17;;;;;;;456.20;411.63;;;;;;;;;;4934662;28;20028;-58
2023/08/18 07:51:43;;;;;;;513.87;466.83;;;;;;;;;;4928690;28;21077;-56
2023/08/18 07:54:08;;;;;;;479.60;432.20;;;;;;;;;;4929019;28;20540;-59
2023/08/18 07:56:34;;;;;;;503.60;454.55;;;;;;;;;;4932530;28;20059;-57
2023/08/18 07:58:59;;;;;;;457.03;415.23;;;;;;;;;;4930451;28;20082;-58
2023/08/18 08:01:24;;;;;;;443.63;398.67;;;;;;;;;;4928266;28;20044;-57
2023/08/18 08:03:49;;;;;;;473.23;430.70;;;;;;;;;;4928356;28;20541;-57
2023/08/18 08:06:14;;;;;;;428.80;385.90;;;;;;;;;;4927495;28;20565;-57
2023/08/18 08:08:40;;;;;;;440.90;396.87;;;;;;;;;;4927347;28;20111;-56
2023/08/18 08:11:05;;;;;;;459.10;415.35;;;;;;;;;;4930102;28;20304;-56
2023/08/18 08:13:30;;;;;;;405.27;366.80;;;;;;;;;;4932572;28;20098;-55
2023/08/18 08:15:56;;;;;;;430.37;392.17;;;;;;;;;;4932130;28;20035;-57
2023/08/18 08:18:21;;;;;;;483.97;437.87;;;;;;;;;;4930331;28;20019;-57
2023/08/18 08:20:46;;;;;;;466.30;421.47;;;;;;;;;;4931109;28;20606;-57
2023/08/18 08:23:11;;;;;;;515.30;437.93;;;;;;;;;;4929182;28;20020;-59
2023/08/18 08:25:37;;;;;;;631.97;550.13;;;;;;;;;;4931548;28;20071;-58
2023/08/18 08:28:03;;;;;;;595.92;526.10;;;;;;;;;;4932199;28;20420;-58
2023/08/18 08:30:31;;;;;;;642.80;580.67;;;;;;;;;;4930819;28;22344;-58
2023/08/18 08:32:56;;;;;;;523.22;469.08;;;;;;;;;;4932551;28;20034;-56
2023/08/18 08:35:21;;;;;;;543.17;488.20;;;;;;;;;;4928798;28;20354;-57
2023/08/18 08:37:47;;;;;;;468.70;422.27;;;;;;;;;;4931532;28;20401;-58
2023/08/18 08:40:17;;;;;;;711.30;601.80;;;;;;;;;;4931262;28;20035;-57
2023/08/18 08:42:42;;;;;;;659.40;539.53;;;;;;;;;;4931302;28;20031;-58
2023/08/18 08:45:07;;;;;;;444.27;401.88;;;;;;;;;;4930301;28;20027;-59
2023/08/18 08:47:33;;;;;;;413.55;371.45;;;;;;;;;;4929681;28;20016;-56
2023/08/18 08:50:00;;;;;;;594.30;526.20;;;;;;;;;;4931196;28;20027;-58
2023/08/18 08:52:26;;;;;;;514.58;459.65;;;;;;;;;;4928467;28;20038;-57
2023/08/18 08:54:58;;;;;;;464.70;415.02;;;;;;;;;;4930178;28;20036;-59
2023/08/18 08:57:23;;;;;;;559.85;499.23;;;;;;;;;;4931795;28;20035;-57
2023/08/18 08:59:48;;;;;;;512.45;443.95;;;;;;;;;;4931883;28;20590;-57
2023/08/18 09:02:14;;;;;;;509.42;442.60;;;;;;;;;;4929597;28;20043;-57
2023/08/18 09:04:39;;;;;;;448.20;403.85;;;;;;;;;;4931147;28;20106;-58
2023/08/18 09:07:04;;;;;;;443.77;398.33;;;;;;;;;;4930391;28;20146;-56
2023/08/18 09:09:30;;;;;;;539.60;484.83;;;;;;;;;;4931688;28;20147;-57
2023/08/18 09:11:59;;;;;;;713.90;530.33;;;;;;;;;;4930742;28;20396;-56
2023/08/18 09:14:26;;;;;;;447.15;401.23;;;;;;;;;;4930258;28;20262;-57
2023/08/18 09:16:51;;;;;;;611.92;552.95;;;;;;;;;;4931842;28;20421;-59
2023/08/18 09:19:16;;;;;;;696.87;565.23;;;;;;;;;;4928765;28;20552;-58
2023/08/18 09:21:42;;;;;;;706.17;574.97;;;;;;;;;;4931514;28;20039;-57
2023/08/18 09:24:07;;;;;;;661.22;551.15;;;;;;;;;;4933124;28;20081;-58
2023/08/18 09:26:32;;;;;;;470.85;415.83;;;;;;;;;;4929106;28;20054;-58
2023/08/18 09:28:58;;;;;;;650.53;409.93;;;;;;;;;;4931838;28;20038;-58
2023/08/18 09:31:23;;;;;;;733.70;581.10;;;;;;;;;;4928272;28;20363;-57
2023/08/18 09:33:50;;;;;;;440.97;396.17;;;;;;;;;;4931186;28;20125;-58
2023/08/18 09:36:15;;;;;;;533.53;430.23;;;;;;;;;;4928888;28;20409;-58
2023/08/18 09:38:41;;;;;;;415.13;372.08;;;;;;;;;;4931073;28;20828;-57
2023/08/18 09:41:07;;;;;;;435.40;389.33;;;;;;;;;;4931078;28;20385;-56
2023/08/18 09:43:33;;;;;;;485.08;435.58;;;;;;;;;;4930227;28;20015;-56
2023/08/18 09:45:58;;;;;;;657.57;585.97;;;;;;;;;;4930733;28;20071;-57
2023/08/18 09:48:26;;;;;;;692.93;531.83;;;;;;;;;;4928091;28;20544;-58
2023/08/18 09:50:53;;;;;;;486.20;434.27;;;;;;;;;;4929728;28;20055;-56
2023/08/18 09:53:20;;;;;;;586.40;441.13;;;;;;;;;;4928463;28;20123;-57
2023/08/18 09:55:47;;;;;;;628.17;293.83;;;;;;;;;;4930784;28;20073;-57
2023/08/18 09:58:21;;;;;;;735.90;584.42;;;;;;;;;;4931014;28;20082;-59
2023/08/18 10:00:54;;;;;;;446.38;398.73;;;;;;;;;;4930622;28;20040;-57
2023/08/18 10:03:19;;;;;;;726.13;534.03;;;;;;;;;;4929825;28;20023;-57
2023/08/18 10:05:46;;;;;;;571.90;515.67;;;;;;;;;;4928536;28;20093;-58
2023/08/18 10:08:12;;;;;;;397.52;357.33;;;;;;;;;;4929930;28;20031;-57
2023/08/18 10:10:37;;;;;;;513.10;456.92;;;;;;;;;;4926959;28;20043;-55
2023/08/18 10:13:05;;;;;;;515.50;460.27;;;;;;;;;;4928576;28;20446;-56
2023/08/18 10:15:31;;;;;;;524.50;468.48;;;;;;;;;;4929396;28;20711;-56
2023/08/18 10:17:56;;;;;;;491.58;423.45;;;;;;;;;;4929062;28;20114;-55
2023/08/18 10:20:24;;;;;;;439.17;385.42;;;;;;;;;;4928025;28;20472;-57
2023/08/18 10:22:49;;;;;;;406.05;365.92;;;;;;;;;;4930916;28;20434;-57
2023/08/18 10:25:22;;;;;;;647.47;553.83;;;;;;;;;;4929478;28;20548;-55
2023/08/18 10:27:48;;;;;;;395.13;353.35;;;;;;;;;;4930844;28;20223;-55
2023/08/18 10:30:13;;;;;;;661.03;480.33;;;;;;;;;;4929548;28;20114;-57
2023/08/18 10:32:38;;;;;;;689.70;580.13;;;;;;;;;;4928685;28;20135;-57
2023/08/18 10:35:22;;;;;;;546.57;489.20;;;;;;;;;;4929349;28;20019;-56
2023/08/18 10:37:49;;;;;;;545.88;486.98;;;;;;;;;;4929206;28;20044;-56
2023/08/18 10:40:22;;;;;;;825.72;562.85;;;;;;;;;;4928754;28;20030;-58
2023/08/18 10:42:47;;;;;;;407.30;368.98;;;;;;;;;;4929015;28;20042;-55
2023/08/18 10:45:22;;;;;;;544.07;463.57;;;;;;;;;;4929564;28;20032;-55
2023/08/18 10:47:48;;;;;;;732.42;546.45;;;;;;;;;;4928641;28;20036;-55
2023/08/18 10:50:14;;;;;;;727.90;579.90;;;;;;;;;;4927628;28;20095;-55
2023/08/18 10:52:40;;;;;;;647.35;577.88;;;;;;;;;;4927554;28;20286;-55
2023/08/18 10:55:06;;;;;;;706.15;435.63;;;;;;;;;;4929561;28;20058;-56
2023/08/18 10:57:33;;;;;;;721.53;560.42;;;;;;;;;;4929324;28;20698;-55
2023/08/18 10:59:58;;;;;;;645.67;482.15;;;;;;;;;;4928015;28;20032;-57
2023/08/18 11:02:24;;;;;;;540.73;482.23;;;;;;;;;;4930492;28;20098;-55
2023/08/18 11:04:50;;;;;;;757.20;617.15;;;;;;;;;;4931201;28;20031;-57
2023/08/18 11:07:16;;;;;;;490.40;437.48;;;;;;;;;;4931133;28;20036;-57
2023/08/18 11:09:41;;;;;;;646.65;541.15;;;;;;;;;;4928058;28;20090;-58
2023/08/18 11:12:07;;;;;;;470.77;426.10;;;;;;;;;;4928997;28;20039;-58
2023/08/18 11:14:32;;;;;;;696.00;532.65;;;;;;;;;;4927323;28;20081;-60
2023/08/18 11:16:57;;;;;;;450.00;403.10;;;;;;;;;;4928474;28;20028;-57
2023/08/18 11:19:22;;;;;;;479.67;427.40;;;;;;;;;;4928303;28;20019;-57
2023/08/18 11:21:48;;;;;;;586.20;517.17;;;;;;;;;;4927492;28;20506;-59
2023/08/18 11:24:13;;;;;;;732.50;556.30;;;;;;;;;;4930415;28;20050;-59
2023/08/18 11:26:39;;;;;;;651.07;591.23;;;;;;;;;;4927770;28;20065;-57
2023/08/18 11:29:05;;;;;;;463.98;418.75;;;;;;;;;;4927618;28;20347;-57
2023/08/18 11:31:30;;;;;;;505.27;451.00;;;;;;;;;;4929077;28;20067;-58
2023/08/18 11:33:57;;;;;;;468.42;422.90;;;;;;;;;;4929088;28;20113;-59
2023/08/18 11:36:27;;;;;;;547.55;418.40;;;;;;;;;;4926562;28;20032;-58
2023/08/18 11:38:55;;;;;;;477.88;431.20;;;;;;;;;;4927417;28;20028;-56
2023/08/18 11:41:20;;;;;;;469.63;419.92;;;;;;;;;;4925915;28;20038;-58
2023/08/18 11:43:46;;;;;;;577.77;504.30;;;;;;;;;;4928421;28;20053;-58
2023/08/18 11:46:11;;;;;;;494.80;447.60;;;;;;;;;;4928264;28;20853;-58
2023/08/18 11:48:36;;;;;;;592.23;529.47;;;;;;;;;;4927101;28;20083;-56
2023/08/18 11:51:02;;;;;;;493.30;442.67;;;;;;;;;;4929938;28;20158;-57
2023/08/18 11:53:28;;;;;;;577.95;499.88;;;;;;;;;;4927038;28;20230;-56
2023/08/18 11:55:55;;;;;;;608.80;546.03;;;;;;;;;;4927889;28;20032;-56
2023/08/18 11:58:22;;;;;;;488.98;441.33;;;;;;;;;;4925937;28;20039;-56
2023/08/18 12:00:48;;;;;;;493.33;443.40;;;;;;;;;;4927341;28;20099;-55
2023/08/18 12:03:20;;;;;;;538.00;483.52;;;;;;;;;;4928001;28;20584;-57
2023/08/18 12:05:46;;;;;;;547.45;490.77;;;;;;;;;;4925506;28;20051;-57
2023/08/18 12:08:11;;;;;;;404.90;363.45;;;;;;;;;;4929876;28;20035;-57
2023/08/18 12:10:37;;;;;;;417.20;365.83;;;;;;;;;;4926071;28;20694;-56
2023/08/18 12:13:03;;;;;;;409.98;368.20;;;;;;;;;;4928291;28;20059;-57
2023/08/18 12:15:28;;;;;;;535.97;482.65;;;;;;;;;;4926873;28;20263;-58
2023/08/18 12:17:54;;;;;;;471.13;422.03;;;;;;;;;;4927701;28;20375;-57
2023/08/18 12:20:24;;;;;;;463.43;417.63;;;;;;;;;;4928912;28;20417;-59
2023/08/18 12:22:50;;;;;;;334.30;298.52;;;;;;;;;;4927893;28;20247;-57
2023/08/18 12:25:16;;;;;;;406.30;362.88;;;;;;;;;;4926435;28;20015;-58
2023/08/18 12:27:43;;;;;;;390.60;327.13;;;;;;;;;;4928178;28;20024;-57
2023/08/18 12:30:09;;;;;;;522.92;465.17;;;;;;;;;;4934598;28;20562;-56
2023/08/18 12:32:34;;;;;;;441.15;372.65;;;;;;;;;;4927146;28;20340;-57
2023/08/18 12:34:59;;;;;;;437.02;389.00;;;;;;;;;;4927574;28;20031;-58
2023/08/18 12:37:25;;;;;;;641.60;504.10;;;;;;;;;;4927718;28;20030;-56
2023/08/18 12:39:50;;;;;;;366.80;313.00;;;;;;;;;;4928081;28;20652;-59
2023/08/18 12:42:16;;;;;;;348.38;310.40;;;;;;;;;;4926711;28;20687;-57
2023/08/18 12:44:41;;;;;;;424.40;371.08;;;;;;;;;;4925526;28;20398;-57
2023/08/18 12:47:09;;;;;;;254.13;169.40;;;;;;;;;;4926979;28;20401;-58
2023/08/18 12:49:35;;;;;;;366.20;276.05;;;;;;;;;;4928522;28;20096;-56
2023/08/18 12:52:00;;;;;;;225.70;170.30;;;;;;;;;;4928879;28;20180;-57
2023/08/18 12:54:26;;;;;;;260.03;199.57;;;;;;;;;;4926800;28;20027;-58
2023/08/18 12:56:51;;;;;;;290.00;259.52;;;;;;;;;;4928537;28;20276;-57
2023/08/18 12:59:16;;;;;;;325.67;292.33;;;;;;;;;;4932469;28;20054;-58
2023/08/18 13:01:41;;;;;;;316.00;225.57;;;;;;;;;;4930222;28;20850;-56
2023/08/18 13:04:10;;;;;;;334.73;299.33;;;;;;;;;;4932260;28;20263;-57
2023/08/18 13:06:35;;;;;;;395.92;318.92;;;;;;;;;;4935814;28;20525;-57
2023/08/18 13:09:00;;;;;;;320.83;244.77;;;;;;;;;;4931078;28;20023;-56
2023/08/18 13:11:26;;;;;;;411.53;369.80;;;;;;;;;;4931685;28;20048;-56
2023/08/18 13:13:51;;;;;;;595.47;536.27;;;;;;;;;;4934097;28;20066;-58
2023/08/18 13:16:16;;;;;;;419.60;376.60;;;;;;;;;;4931260;28;20040;-57
2023/08/18 13:18:41;;;;;;;266.33;183.83;;;;;;;;;;4929059;28;20429;-58
2023/08/18 13:21:08;;;;;;;454.57;409.43;;;;;;;;;;4930734;28;20052;-57
2023/08/18 13:23:34;;;;;;;563.63;503.83;;;;;;;;;;4930284;28;20270;-58
2023/08/18 13:25:59;;;;;;;350.08;312.92;;;;;;;;;;4931249;28;20036;-56
2023/08/18 13:28:24;;;;;;;235.83;192.27;;;;;;;;;;4930568;28;20042;-56
2023/08/18 13:30:49;;;;;;;417.27;366.60;;;;;;;;;;4926869;28;20820;-57
2023/08/18 13:33:15;;;;;;;200.47;137.53;;;;;;;;;;4931875;28;20038;-56
2023/08/18 13:35:40;;;;;;;511.83;406.73;;;;;;;;;;4926678;28;20078;-56
2023/08/18 13:38:05;;;;;;;423.57;378.03;;;;;;;;;;4929804;28;20326;-56
2023/08/18 13:40:30;;;;;;;500.80;438.57;;;;;;;;;;4929771;28;20046;-57
2023/08/18 13:42:56;;;;;;;412.13;372.00;;;;;;;;;;4930860;28;20098;-58
2023/08/18 13:45:21;;;;;;;398.63;358.15;;;;;;;;;;4930859;28;20083;-56
2023/08/18 13:47:47;;;;;;;389.73;349.50;;;;;;;;;;4927788;28;20058;-58
2023/08/18 13:50:12;;;;;;;309.37;248.83;;;;;;;;;;4929732;28;20035;-56
2023/08/18 13:52:37;;;;;;;427.37;380.80;;;;;;;;;;4928310;28;20028;-56
2023/08/18 13:55:03;;;;;;;232.53;174.37;;;;;;;;;;4931231;28;20035;-57